Time;durP1;ratioP1;P1;durP2;ratioP2;P2;SDS_P1;SDS_P2;PMS_P1;PMS_P2;Temp;Humidity;BMP_temperature;BMP_pressure;BME280_temperature;BME280_humidity;BME280_pressure;Samples;Min_cycle;Max_cycle;Signal;HPM_P1;HPM_P2
2021/09/27 00:02:13;;;;;;;5.90;4.93;;;;;;;20.60;65.04;101444.25;4950351;29;20037;-77
2021/09/27 00:04:38;;;;;;;5.95;5.45;;;;;;;20.58;65.21;101445.34;4932551;29;20039;-77
2021/09/27 00:07:04;;;;;;;5.30;4.90;;;;;;;20.60;64.80;101446.06;4943670;29;20038;-77
2021/09/27 00:09:35;;;;;;;5.38;4.28;;;;;;;20.60;64.95;101443.41;4959294;29;20366;-77
2021/09/27 00:12:04;;;;;;;5.10;4.70;;;;;;;20.59;65.10;101444.38;4956312;29;20135;-77
2021/09/27 00:14:30;;;;;;;5.30;4.47;;;;;;;20.54;65.14;101450.03;4933309;29;20036;-77
2021/09/27 00:16:55;;;;;;;5.15;4.80;;;;;;;20.56;65.04;101439.28;4946699;29;20107;-77
2021/09/27 00:19:23;;;;;;;9.02;5.93;;;;;;;20.56;65.02;101433.97;4953732;29;20147;-77
2021/09/27 00:21:49;;;;;;;7.90;4.57;;;;;;;20.55;64.86;101430.44;4956261;29;20042;-77
2021/09/27 00:24:14;;;;;;;5.07;4.68;;;;;;;20.53;65.09;101424.38;4935885;29;20031;-77
2021/09/27 00:26:40;;;;;;;6.28;5.25;;;;;;;20.50;65.12;101425.47;4959902;29;20031;-77
2021/09/27 00:29:05;;;;;;;6.15;5.55;;;;;;;20.53;64.95;101424.38;4931445;29;20362;-77
2021/09/27 00:31:31;;;;;;;5.10;4.57;;;;;;;20.46;65.15;101423.97;4944701;29;20055;-77
2021/09/27 00:33:56;;;;;;;8.85;6.00;;;;;;;20.47;65.08;101420.38;4940519;29;20082;-77
2021/09/27 00:36:22;;;;;;;8.40;7.53;;;;;;;20.50;64.86;101424.59;4944652;29;20037;-77
2021/09/27 00:38:47;;;;;;;12.38;7.57;;;;;;;20.43;65.30;101413.56;4956672;29;20023;-77
2021/09/27 00:41:14;;;;;;;10.70;8.68;;;;;;;20.45;65.29;101408.16;4941841;29;20123;-77
2021/09/27 00:43:40;;;;;;;9.20;8.13;;;;;;;20.44;65.31;101414.41;4936273;29;20063;-77
2021/09/27 00:46:09;;;;;;;8.65;7.88;;;;;;;20.41;65.19;101404.88;4929936;29;20027;-77
2021/09/27 00:48:34;;;;;;;5.90;5.40;;;;;;;20.42;65.14;101395.06;4946657;29;20027;-77
2021/09/27 00:51:09;;;;;;;8.55;5.47;;;;;;;20.41;65.04;101415.50;4944021;29;20319;-77
2021/09/27 00:53:40;;;;;;;5.40;5.00;;;;;;;20.39;65.24;101414.78;4943853;29;20094;-77
2021/09/27 00:56:06;;;;;;;5.53;4.90;;;;;;;20.42;65.34;101419.00;4944158;29;20027;-77
2021/09/27 00:58:31;;;;;;;5.28;4.78;;;;;;;20.40;65.37;101419.13;4944057;29;20204;-78
2021/09/27 01:00:57;;;;;;;6.20;5.72;;;;;;;20.36;65.52;101416.81;4954695;29;20226;-77
2021/09/27 01:03:23;;;;;;;9.45;8.55;;;;;;;20.35;65.63;101402.63;4955318;29;20524;-78
2021/09/27 01:06:22;;;;;;;8.23;7.32;;;;;;;20.32;65.42;101406.38;4947367;29;20031;-78
2021/09/27 01:09:02;;;;;;;7.70;7.03;;;;;;;20.28;65.67;101398.72;4957726;29;20027;-78
2021/09/27 01:11:37;;;;;;;9.70;6.50;;;;;;;20.33;65.41;101404.56;4929337;29;20144;-78
2021/09/27 01:14:08;;;;;;;10.57;9.55;;;;;;;20.32;65.40;101395.75;4955655;29;20031;-78
2021/09/27 01:16:50;;;;;;;9.75;8.57;;;;;;;20.35;65.24;101401.78;4944497;29;20039;-78
2021/09/27 01:19:53;;;;;;;7.63;5.57;;;;;;;20.30;65.49;101399.47;4946308;29;20031;-77
2021/09/27 01:22:24;;;;;;;7.05;5.53;;;;;;;20.32;65.49;101400.22;4963473;29;20033;-78
2021/09/27 01:25:08;;;;;;;5.32;4.80;;;;;;;20.25;65.63;101396.31;4963788;29;20278;-77
2021/09/27 01:28:05;;;;;;;7.95;6.35;;;;;;;20.28;65.64;101394.28;4963633;29;20283;-77
2021/09/27 01:30:52;;;;;;;5.80;5.20;;;;;;;20.25;65.50;101393.66;4943384;29;20228;-77
2021/09/27 01:33:21;;;;;;;6.43;5.80;;;;;;;20.31;65.46;101409.16;4928881;29;20082;-77
2021/09/27 01:35:56;;;;;;;5.95;5.45;;;;;;;20.25;65.50;101405.13;4927652;29;20226;-77
2021/09/27 01:38:47;;;;;;;9.18;8.10;;;;;;;20.20;65.71;101401.94;4928165;29;20231;-77
2021/09/27 01:41:24;;;;;;;4.63;4.22;;;;;;;20.25;65.51;101407.78;4942584;29;20215;-77
2021/09/27 01:44:27;;;;;;;4.60;4.30;;;;;;;20.21;65.68;101419.63;4948084;29;20085;-77
2021/09/27 01:46:57;;;;;;;6.68;5.82;;;;;;;20.26;65.53;101417.44;4959318;29;20348;-77
2021/09/27 01:49:33;;;;;;;4.57;4.18;;;;;;;20.26;65.58;101413.94;4943017;29;20023;-77
2021/09/27 01:52:08;;;;;;;5.88;4.50;;;;;;;20.18;65.77;101408.34;4946253;29;20027;-77
2021/09/27 01:54:42;;;;;;;6.57;5.40;;;;;;;20.15;66.00;101398.75;4945177;29;20267;-77
2021/09/27 01:57:20;;;;;;;5.72;5.22;;;;;;;20.19;65.98;101402.91;4932965;29;20044;-77
2021/09/27 01:59:45;;;;;;;5.15;4.80;;;;;;;20.23;65.65;101408.84;4957506;29;20024;-77
2021/09/27 02:02:35;;;;;;;4.53;4.10;;;;;;;20.22;65.70;101402.69;4953237;29;20338;-78
2021/09/27 02:05:10;;;;;;;6.18;5.57;;;;;;;20.20;65.73;101401.09;4948029;29;20286;-77
2021/09/27 02:07:39;;;;;;;5.03;4.63;;;;;;;20.20;65.88;101404.59;4946057;29;20057;-78
2021/09/27 02:10:09;;;;;;;7.07;6.47;;;;;;;20.18;65.73;101398.56;4942476;29;20272;-77
2021/09/27 02:12:38;;;;;;;4.82;4.38;;;;;;;20.15;66.05;101406.75;4924096;29;20196;-77
2021/09/27 02:15:13;;;;;;;6.93;6.22;;;;;;;20.17;66.05;101396.84;4938781;29;20094;-77
2021/09/27 02:17:49;;;;;;;5.20;4.80;;;;;;;20.16;66.07;101403.13;4958224;29;20027;-77
2021/09/27 02:20:22;;;;;;;4.88;4.40;;;;;;;20.19;65.70;101402.91;4948754;29;20031;-77
2021/09/27 02:23:17;;;;;;;7.05;6.38;;;;;;;20.11;65.94;101408.78;4945430;29;20039;-78
2021/09/27 02:25:43;;;;;;;5.20;4.22;;;;;;;20.13;65.93;101398.88;4940412;29;20039;-77
2021/09/27 02:28:18;;;;;;;7.90;6.78;;;;;;;20.12;66.02;101391.88;4929714;29;20015;-77
2021/09/27 02:31:02;;;;;;;5.70;5.30;;;;;;;20.11;66.02;101398.13;4938735;29;20139;-78
2021/09/27 02:33:34;;;;;;;6.22;5.63;;;;;;;20.09;66.14;101388.59;4950435;29;20019;-77
2021/09/27 02:36:07;;;;;;;7.40;6.70;;;;;;;20.06;66.20;101384.31;4942416;29;20259;-78
2021/09/27 02:38:58;;;;;;;4.72;4.30;;;;;;;20.14;66.07;101386.44;4941427;29;20094;-77
2021/09/27 02:41:42;;;;;;;6.38;4.60;;;;;;;20.11;66.17;101384.84;4923518;29;20051;-77
2021/09/27 02:44:08;;;;;;;7.88;6.30;;;;;;;20.10;65.87;101388.47;4924855;29;20146;-76
2021/09/27 02:46:33;;;;;;;4.50;4.20;;;;;;;20.14;66.06;101387.28;4927586;29;20036;-77
2021/09/27 02:49:11;;;;;;;8.18;6.40;;;;;;;20.18;65.75;101381.75;4922925;29;20376;-76
2021/09/27 02:51:42;;;;;;;5.78;5.28;;;;;;;20.12;65.97;101380.41;4923747;29;20027;-76
2021/09/27 02:54:08;;;;;;;4.20;3.90;;;;;;;20.13;65.94;101379.41;4942245;29;20020;-77
2021/09/27 02:57:02;;;;;;;8.38;7.03;;;;;;;20.04;66.05;101372.94;4941548;29;20039;-78
2021/09/27 02:59:43;;;;;;;6.00;5.45;;;;;;;20.01;66.28;101374.97;4940847;29;20063;-77
2021/09/27 03:02:35;;;;;;;4.93;4.53;;;;;;;20.04;65.98;101383.59;4935716;29;20094;-77
2021/09/27 03:05:35;;;;;;;5.63;4.90;;;;;;;20.03;66.25;101384.56;4921632;29;20023;-78
2021/09/27 03:08:15;;;;;;;4.82;4.53;;;;;;;20.05;66.22;101368.50;4927052;29;20059;-77
2021/09/27 03:11:19;;;;;;;8.73;7.70;;;;;;;20.04;65.92;101372.09;4939828;29;20102;-77
2021/09/27 03:14:06;;;;;;;5.70;5.20;;;;;;;20.02;66.12;101361.59;4926305;29;20055;-77
2021/09/27 03:16:32;;;;;;;5.82;5.32;;;;;;;20.01;66.26;101369.66;4940355;29;20055;-78
2021/09/27 03:19:15;;;;;;;5.15;4.70;;;;;;;20.02;65.92;101371.38;4927258;29;20055;-78
2021/09/27 03:21:53;;;;;;;6.97;5.97;;;;;;;19.99;66.07;101374.25;4926796;29;20024;-77
2021/09/27 03:24:27;;;;;;;5.80;5.30;;;;;;;19.97;66.33;101362.88;4939425;29;20471;-77
2021/09/27 03:27:02;;;;;;;4.88;4.45;;;;;;;19.96;66.16;101362.03;4937435;29;20030;-77
2021/09/27 03:29:43;;;;;;;5.90;5.32;;;;;;;19.99;66.12;101359.13;4944729;29;20035;-77
2021/09/27 03:32:25;;;;;;;15.45;10.60;;;;;;;19.96;66.00;101354.06;4942370;29;20040;-78
2021/09/27 03:35:02;;;;;;;5.57;5.13;;;;;;;19.95;66.20;101344.38;4928665;29;20259;-77
2021/09/27 03:37:49;;;;;;;16.83;12.55;;;;;;;19.98;65.92;101353.97;4943763;29;20031;-78
2021/09/27 03:40:26;;;;;;;13.13;11.75;;;;;;;19.96;66.24;101358.53;4946099;29;20027;-77
2021/09/27 03:43:03;;;;;;;8.45;7.63;;;;;;;19.90;66.50;101344.72;4941675;29;20419;-77
2021/09/27 03:45:35;;;;;;;12.13;9.25;;;;;;;19.91;66.30;101340.25;4944454;29;20027;-77
2021/09/27 03:48:02;;;;;;;12.85;10.18;;;;;;;19.96;66.02;101340.78;4942154;29;20071;-78
2021/09/27 03:50:32;;;;;;;10.10;8.98;;;;;;;19.90;66.23;101343.84;4928840;29;20039;-78
2021/09/27 03:53:08;;;;;;;8.55;7.20;;;;;;;19.86;66.38;101345.88;4926290;29;20103;-78
2021/09/27 03:55:40;;;;;;;16.67;13.15;;;;;;;19.88;66.19;101349.31;4941768;29;20107;-78
2021/09/27 03:58:27;;;;;;;18.65;12.00;;;;;;;19.87;66.06;101350.25;4934284;29;20032;-78
2021/09/27 04:01:08;;;;;;;15.20;12.88;;;;;;;19.84;66.43;101352.28;4935371;29;20064;-77
2021/09/27 04:03:53;;;;;;;12.63;10.38;;;;;;;19.82;66.17;101346.22;4909574;29;20031;-77
2021/09/27 04:06:45;;;;;;;9.95;9.00;;;;;;;19.80;66.62;101345.50;4926756;29;20357;-77
2021/09/27 04:09:18;;;;;;;12.98;10.65;;;;;;;19.80;66.41;101337.53;4935694;29;20101;-77
2021/09/27 04:11:53;;;;;;;15.40;13.80;;;;;;;19.79;66.38;101341.97;4938940;29;20047;-77
2021/09/27 04:14:28;;;;;;;15.10;13.50;;;;;;;19.85;66.22;101333.56;4917851;29;20072;-77
2021/09/27 04:17:02;;;;;;;17.85;10.95;;;;;;;19.81;66.42;101331.22;4930467;29;20083;-78
2021/09/27 04:19:38;;;;;;;12.90;11.18;;;;;;;19.77;66.36;101325.28;4941099;29;20031;-77
2021/09/27 04:22:35;;;;;;;14.90;13.30;;;;;;;19.75;66.31;101327.22;4930730;29;20024;-77
2021/09/27 04:25:26;;;;;;;12.57;11.25;;;;;;;19.69;66.29;101327.63;4929880;29;20067;-77
2021/09/27 04:28:01;;;;;;;17.92;13.65;;;;;;;19.72;66.37;101324.75;4928598;29;20031;-78
2021/09/27 04:30:30;;;;;;;15.43;13.80;;;;;;;19.72;66.19;101322.94;4924400;29;20032;-77
2021/09/27 04:33:26;;;;;;;15.55;13.50;;;;;;;19.73;66.40;101331.78;4926568;29;20044;-77
2021/09/27 04:36:13;;;;;;;18.10;14.48;;;;;;;19.73;66.43;101326.47;4926544;29;20354;-78
2021/09/27 04:38:38;;;;;;;17.67;10.98;;;;;;;19.74;66.00;101326.38;4909602;29;20064;-78
2021/09/27 04:41:25;;;;;;;13.40;10.85;;;;;;;19.72;66.32;101327.41;4926908;29;20070;-79
2021/09/27 04:43:54;;;;;;;11.75;10.52;;;;;;;19.67;66.61;101337.53;4949279;29;20200;-78
2021/09/27 04:46:42;;;;;;;17.85;13.10;;;;;;;19.66;66.28;101334.00;4917283;29;20283;-78
2021/09/27 04:49:17;;;;;;;14.18;11.52;;;;;;;19.64;66.40;101329.75;4959518;29;20038;-78
2021/09/27 04:52:04;;;;;;;6.10;5.63;;;;;;;19.67;66.07;101326.91;4945954;29;20030;-79
2021/09/27 04:54:54;;;;;;;18.27;14.20;;;;;;;19.64;66.54;101327.94;4943869;29;20027;-78
2021/09/27 04:57:26;;;;;;;17.10;12.93;;;;;;;19.62;66.56;101327.22;4945226;29;20251;-79
2021/09/27 05:00:21;;;;;;;13.63;10.05;;;;;;;19.69;66.08;101314.34;4945908;29;20036;-79
2021/09/27 05:03:16;;;;;;;10.73;9.63;;;;;;;19.62;66.44;101329.03;4944264;29;20023;-78
2021/09/27 05:06:13;;;;;;;11.20;10.18;;;;;;;19.62;66.28;101313.09;4942975;29;20380;-78
2021/09/27 05:09:03;;;;;;;20.65;13.82;;;;;;;19.60;66.48;101301.72;4944330;29;20259;-79
2021/09/27 05:11:53;;;;;;;19.08;12.05;;;;;;;19.60;66.38;101302.56;4947186;29;20033;-78
2021/09/27 05:14:31;;;;;;;14.80;12.90;;;;;;;19.64;66.11;101298.72;4955889;29;20035;-78
2021/09/27 05:17:23;;;;;;;20.17;14.50;;;;;;;19.55;66.64;101297.59;4951619;28;20039;-80
2021/09/27 05:20:01;;;;;;;14.90;11.90;;;;;;;19.58;66.22;101290.34;4956748;28;20035;-79
2021/09/27 05:22:47;;;;;;;15.95;14.18;;;;;;;19.59;66.51;101289.38;4964731;28;20035;-79
2021/09/27 05:25:39;;;;;;;21.65;14.82;;;;;;;19.52;66.27;101287.19;4960546;29;20065;-79
2021/09/27 05:28:27;;;;;;;15.70;13.27;;;;;;;19.59;66.29;101284.06;4926502;29;20395;-79
2021/09/27 05:31:10;;;;;;;17.38;13.32;;;;;;;19.59;66.17;101273.44;4937589;29;20035;-79
2021/09/27 05:33:53;;;;;;;16.60;13.77;;;;;;;19.62;66.04;101276.72;4933908;29;20031;-79
2021/09/27 05:36:57;;;;;;;15.95;12.55;;;;;;;19.61;66.33;101272.38;4931866;28;20046;-83
2021/09/27 05:39:49;;;;;;;15.38;13.10;;;;;;;19.75;69.04;101263.44;4950064;29;20375;-79
2021/09/27 05:42:32;;;;;;;15.07;12.50;;;;;;;19.81;71.22;101262.13;4928573;29;20111;-83
2021/09/27 05:45:25;;;;;;;32.65;21.33;;;;;;;15.71;83.90;101267.81;4942907;29;20023;-80
2021/09/27 05:48:12;;;;;;;36.20;22.77;;;;;;;15.59;85.27;101265.00;4943112;29;20043;-80
2021/09/27 05:50:46;;;;;;;35.72;21.65;;;;;;;15.65;85.26;101277.88;4943960;29;20082;-80
2021/09/27 05:53:28;;;;;;;35.22;20.65;;;;;;;15.64;85.28;101276.16;4931266;29;20346;-80
2021/09/27 05:56:41;;;;;;;29.77;17.75;;;;;;;15.81;84.99;101270.84;4932892;28;20034;-80
2021/09/27 05:59:20;;;;;;;30.35;18.77;;;;;;;15.67;85.29;101270.72;4912146;29;20070;-80
2021/09/27 06:02:10;;;;;;;30.83;18.00;;;;;;;15.81;84.76;101256.75;4933030;29;20066;-79
2021/09/27 06:04:50;;;;;;;29.83;18.40;;;;;;;15.85;84.99;101263.59;4966013;29;20038;-79
2021/09/27 06:07:28;;;;;;;27.08;19.13;;;;;;;15.83;85.10;101271.59;4962112;29;20031;-80
2021/09/27 06:10:03;;;;;;;26.35;17.05;;;;;;;15.86;84.90;101267.94;4931685;29;20074;-80
2021/09/27 06:12:45;;;;;;;27.17;18.00;;;;;;;15.96;84.78;101263.00;4962892;29;20034;-80
2021/09/27 06:15:11;;;;;;;37.35;17.35;;;;;;;16.04;84.44;101268.69;4965291;29;20039;-80
2021/09/27 06:17:50;;;;;;;28.35;16.75;;;;;;;16.26;83.44;101263.00;4932321;29;20031;-80
2021/09/27 06:20:34;;;;;;;20.52;15.27;;;;;;;16.02;84.23;101266.13;4964225;29;20047;-80
2021/09/27 06:23:13;;;;;;;22.15;15.35;;;;;;;16.26;83.24;101265.66;4962380;29;20329;-80
2021/09/27 06:25:48;;;;;;;21.02;15.07;;;;;;;15.92;84.20;101265.81;4949915;29;20333;-80
2021/09/27 06:28:17;;;;;;;20.92;15.48;;;;;;;15.89;84.65;101259.84;4939310;29;20024;-80
2021/09/27 06:31:23;;;;;;;21.10;13.85;;;;;;;16.09;83.85;101262.19;4946501;29;20057;-80
2021/09/27 06:34:02;;;;;;;22.00;14.77;;;;;;;15.82;84.77;101251.41;4946586;28;20055;-80
2021/09/27 06:36:30;;;;;;;25.23;16.13;;;;;;;15.88;84.93;101243.16;4946662;29;20053;-81
2021/09/27 06:38:57;;;;;;;23.10;15.68;;;;;;;15.86;85.02;101230.94;4933857;29;20070;-81
2021/09/27 06:41:25;;;;;;;28.65;16.05;;;;;;;15.83;85.01;101220.59;4944207;28;20090;-80
2021/09/27 06:43:51;;;;;;;20.77;14.67;;;;;;;15.99;84.30;101217.91;4945477;29;20070;-80
2021/09/27 06:46:17;;;;;;;16.23;12.35;;;;;;;15.99;84.19;101225.81;4935176;29;20050;-80
2021/09/27 06:48:42;;;;;;;18.15;14.40;;;;;;;16.18;83.38;101223.81;4938249;28;20309;-80
2021/09/27 06:51:07;;;;;;;19.23;14.48;;;;;;;16.19;83.53;101222.03;4936512;29;20032;-79
2021/09/27 06:53:33;;;;;;;18.55;14.55;;;;;;;16.26;82.98;101215.44;4953424;28;20048;-79
2021/09/27 06:55:59;;;;;;;30.73;13.18;;;;;;;16.58;82.06;101223.28;4953746;28;20110;-78
2021/09/27 06:58:24;;;;;;;28.75;12.63;;;;;;;16.39;83.05;101220.84;4945775;28;20061;-78
2021/09/27 07:00:51;;;;;;;21.50;14.13;;;;;;;16.22;83.63;101217.41;4951315;28;20064;-80
2021/09/27 07:03:16;;;;;;;23.38;14.45;;;;;;;16.36;83.93;101208.69;4959786;28;20032;-76
2021/09/27 07:05:42;;;;;;;25.67;14.30;;;;;;;16.85;81.08;101218.16;4960662;28;20049;-74
2021/09/27 07:08:07;;;;;;;21.05;12.02;;;;;;;17.19;80.57;101216.03;4946621;29;20035;-78
2021/09/27 07:10:32;;;;;;;18.90;12.15;;;;;;;17.00;81.02;101216.34;4950987;28;20064;-75
2021/09/27 07:12:58;;;;;;;15.88;13.15;;;;;;;17.03;80.82;101213.53;4943626;28;20041;-78
2021/09/27 07:15:24;;;;;;;19.52;12.25;;;;;;;17.11;80.36;101224.47;4924807;28;20044;-79
2021/09/27 07:17:49;;;;;;;19.13;11.88;;;;;;;17.19;80.17;101231.94;4916495;29;20027;-78
2021/09/27 07:20:20;;;;;;;19.30;13.00;;;;;;;17.20;80.91;101217.75;4939990;29;20369;-76
2021/09/27 07:22:45;;;;;;;20.98;13.77;;;;;;;17.07;81.05;101233.56;4926478;29;20204;-77
2021/09/27 07:25:11;;;;;;;16.48;12.77;;;;;;;17.13;80.94;101227.88;4941677;28;20035;-78
2021/09/27 07:27:37;;;;;;;19.90;14.85;;;;;;;17.16;81.27;101235.63;4928536;29;20064;-78
2021/09/27 07:30:04;;;;;;;18.00;14.43;;;;;;;17.30;80.71;101240.06;4940841;28;20047;-77
2021/09/27 07:32:30;;;;;;;19.38;15.50;;;;;;;17.27;80.51;101237.59;4954364;28;20476;-77
2021/09/27 07:34:55;;;;;;;23.70;15.43;;;;;;;17.34;80.51;101211.63;4926089;29;20270;-76
2021/09/27 07:37:21;;;;;;;23.65;15.07;;;;;;;17.65;79.76;101214.00;4940755;29;20242;-76
2021/09/27 07:39:46;;;;;;;26.55;15.30;;;;;;;17.54;80.21;101224.44;4933189;29;20118;-76
2021/09/27 07:42:11;;;;;;;27.25;16.33;;;;;;;17.45;80.22;101217.91;4940136;28;20053;-76
2021/09/27 07:44:37;;;;;;;24.52;17.83;;;;;;;17.36;80.65;101218.50;4909322;29;20047;-77
2021/09/27 07:47:03;;;;;;;37.58;18.55;;;;;;;17.35;80.89;101224.72;4918037;29;20051;-76
2021/09/27 07:49:29;;;;;;;31.92;19.05;;;;;;;17.30;81.34;101208.31;4919276;29;20462;-77
2021/09/27 07:51:57;;;;;;;27.42;18.75;;;;;;;17.50;80.20;101214.97;4916862;29;20034;-77
2021/09/27 07:54:22;;;;;;;31.15;20.05;;;;;;;17.51;80.19;101197.28;4931464;29;20068;-77
2021/09/27 07:56:48;;;;;;;34.85;21.98;;;;;;;17.35;80.65;101197.41;4914641;29;20151;-77
2021/09/27 07:59:13;;;;;;;30.38;21.35;;;;;;;17.43;80.58;101211.88;4930306;29;20362;-76
2021/09/27 08:01:39;;;;;;;33.17;20.55;;;;;;;17.44;81.15;101204.75;4916087;29;20157;-77
2021/09/27 08:04:04;;;;;;;27.98;22.02;;;;;;;17.43;80.95;101208.38;4931119;29;20036;-77
2021/09/27 08:06:29;;;;;;;36.47;22.70;;;;;;;17.32;81.54;101211.72;4918199;29;20357;-77
2021/09/27 08:08:55;;;;;;;36.05;22.33;;;;;;;17.43;81.19;101198.63;4917225;29;20036;-77
2021/09/27 08:11:20;;;;;;;27.50;20.33;;;;;;;17.54;80.05;101191.81;4908428;29;20038;-77
2021/09/27 08:13:46;;;;;;;34.28;22.67;;;;;;;17.59;80.33;101200.28;4920807;29;20036;-77
2021/09/27 08:16:14;;;;;;;34.13;24.45;;;;;;;17.60;80.13;101186.94;4915751;29;20043;-77
2021/09/27 08:18:43;;;;;;;36.65;22.50;;;;;;;17.90;79.55;101185.06;4932525;29;20043;-77
2021/09/27 08:21:11;;;;;;;37.42;20.45;;;;;;;18.11;79.21;101193.41;4916965;29;20048;-77
2021/09/27 08:23:37;;;;;;;34.42;22.52;;;;;;;18.14;78.70;101177.31;4944229;29;20031;-77
2021/09/27 08:26:03;;;;;;;36.22;21.70;;;;;;;17.72;80.48;101176.50;4940112;29;20123;-78
2021/09/27 08:28:29;;;;;;;32.83;21.85;;;;;;;17.96;80.04;101179.38;4906600;29;20035;-80
2021/09/27 08:31:00;;;;;;;25.65;18.50;;;;;;;17.75;80.03;101161.25;4933279;29;20087;-79
2021/09/27 08:33:26;;;;;;;25.77;19.65;;;;;;;17.97;78.82;101165.16;4917431;29;20036;-80
2021/09/27 08:35:52;;;;;;;28.98;20.27;;;;;;;18.30;78.06;101151.47;4923519;29;20032;-80
2021/09/27 08:38:18;;;;;;;26.67;19.55;;;;;;;17.98;78.86;101154.47;4934295;29;20127;-78
2021/09/27 08:41:08;;;;;;;23.20;17.67;;;;;;;17.92;79.53;101157.53;4906744;29;20036;-80
2021/09/27 08:43:43;;;;;;;30.80;18.95;;;;;;;18.22;78.41;101159.91;4931145;29;20050;-80
2021/09/27 08:46:31;;;;;;;28.05;19.58;;;;;;;18.17;78.45;101155.88;4924090;29;20067;-80
2021/09/27 08:49:33;;;;;;;24.37;16.83;;;;;;;17.95;79.21;101152.00;4945716;29;20535;-79
2021/09/27 08:51:58;;;;;;;18.90;14.73;;;;;;;18.10;78.80;101150.16;4955598;29;20027;-79
2021/09/27 08:54:26;;;;;;;22.95;13.88;;;;;;;18.29;77.92;101141.78;4939337;29;20310;-79
2021/09/27 08:57:16;;;;;;;21.45;14.18;;;;;;;18.53;76.56;101160.47;4943195;29;20099;-78
2021/09/27 09:00:03;;;;;;;15.75;12.15;;;;;;;17.91;78.90;101144.38;4915211;29;20043;-80
2021/09/27 09:02:35;;;;;;;17.42;12.50;;;;;;;18.44;76.83;101147.00;4950625;28;20032;-78
2021/09/27 09:05:24;;;;;;;20.67;12.80;;;;;;;18.66;77.06;101141.88;4945250;29;20206;-78
2021/09/27 09:08:14;;;;;;;18.83;12.15;;;;;;;18.39;78.54;101144.66;4936348;29;20012;-78
2021/09/27 09:11:05;;;;;;;23.70;11.43;;;;;;;18.69;76.66;101144.34;4937172;29;20023;-78
2021/09/27 09:13:39;;;;;;;10.27;9.15;;;;;;;18.34;76.75;101144.16;4930566;28;20362;-78
2021/09/27 09:16:07;;;;;;;11.90;10.63;;;;;;;18.62;75.82;101135.09;4944681;29;20043;-79
2021/09/27 09:18:42;;;;;;;17.17;10.68;;;;;;;18.63;75.69;101130.66;4928193;29;20039;-79
2021/09/27 09:21:13;;;;;;;22.67;10.05;;;;;;;18.73;75.31;101129.06;4959634;28;20063;-78
2021/09/27 09:23:41;;;;;;;19.15;9.75;;;;;;;18.85;76.21;101117.63;4938982;29;20051;-78
2021/09/27 09:26:11;;;;;;;11.98;9.27;;;;;;;18.96;74.72;101120.34;4937311;29;20216;-81
2021/09/27 09:28:38;;;;;;;13.95;9.93;;;;;;;18.72;74.31;101120.25;4917961;29;20035;-76
2021/09/27 09:31:12;;;;;;;10.00;8.95;;;;;;;18.64;74.68;101121.75;4950988;28;20028;-78
2021/09/27 09:33:43;;;;;;;13.18;9.00;;;;;;;18.78;75.28;101119.81;4943096;29;20078;-78
2021/09/27 09:36:10;;;;;;;14.15;9.32;;;;;;;18.70;75.14;101121.31;4939574;29;20043;-79
2021/09/27 09:38:37;;;;;;;10.17;8.60;;;;;;;18.58;75.59;101121.22;4937120;29;20036;-78
2021/09/27 09:41:02;;;;;;;11.13;8.77;;;;;;;18.73;75.21;101127.25;4913297;29;20027;-80
2021/09/27 09:43:30;;;;;;;11.55;8.90;;;;;;;18.67;75.31;101121.53;4949647;29;20145;-78
2021/09/27 09:46:05;;;;;;;12.00;8.68;;;;;;;19.14;74.89;101112.03;4932997;29;20035;-79
2021/09/27 09:48:31;;;;;;;12.68;8.55;;;;;;;19.17;73.94;101112.66;4939293;29;20035;-80
2021/09/27 09:50:59;;;;;;;12.00;8.43;;;;;;;19.33;72.22;101111.53;4936528;29;20099;-81
2021/09/27 09:53:29;;;;;;;14.15;9.00;;;;;;;19.57;71.75;101111.50;4927428;29;20331;-81
2021/09/27 09:55:59;;;;;;;17.98;8.95;;;;;;;19.79;72.31;101104.63;4937902;29;20043;-81
2021/09/27 09:58:43;;;;;;;15.10;7.32;;;;;;;19.63;72.42;101104.88;4955264;29;20046;-80
2021/09/27 10:01:20;;;;;;;11.27;6.82;;;;;;;19.66;71.96;101102.84;4949795;28;20106;-80
2021/09/27 10:04:05;;;;;;;12.65;7.38;;;;;;;19.50;71.86;101107.59;4944282;29;20043;-78
2021/09/27 10:06:41;;;;;;;29.70;7.22;;;;;;;19.83;70.27;101109.59;4931309;28;20043;-78
2021/09/27 10:09:08;;;;;;;15.75;6.40;;;;;;;20.25;70.26;101115.25;4921796;29;20036;-79
2021/09/27 10:11:40;;;;;;;12.07;6.55;;;;;;;20.02;68.61;101111.69;4919968;29;20040;-78
2021/09/27 10:14:24;;;;;;;5.90;4.68;;;;;;;20.12;69.24;101115.34;4918404;29;20034;-78
2021/09/27 10:16:54;;;;;;;14.50;6.10;;;;;;;20.75;67.72;101112.28;4942734;29;20222;-82
2021/09/27 10:19:33;;;;;;;7.40;4.35;;;;;;;20.26;66.78;101116.94;4951071;28;20048;-82
2021/09/27 10:22:18;;;;;;;6.13;4.20;;;;;;;20.06;68.47;101112.31;4927057;29;20035;-82
2021/09/27 10:24:49;;;;;;;11.10;4.57;;;;;;;20.22;67.12;101104.00;4938553;29;20020;-81
2021/09/27 10:27:17;;;;;;;8.15;4.15;;;;;;;20.20;68.34;101103.28;4939598;29;20107;-80
2021/09/27 10:29:43;;;;;;;9.07;3.97;;;;;;;20.22;67.71;101099.53;4948988;28;20036;-82
2021/09/27 10:32:29;;;;;;;5.32;3.30;;;;;;;20.11;66.23;101086.22;4930751;29;20230;-77
2021/09/27 10:34:57;;;;;;;27.67;6.32;;;;;;;20.68;68.54;101095.09;4941867;29;20027;-77
2021/09/27 10:37:23;;;;;;;9.43;4.22;;;;;;;20.26;66.13;101074.38;4942776;29;20055;-78
2021/09/27 10:39:52;;;;;;;8.32;3.40;;;;;;;20.51;64.98;101080.47;4939227;29;20040;-77
2021/09/27 10:42:20;;;;;;;18.27;3.67;;;;;;;21.48;62.47;101086.00;4939145;29;20046;-77
2021/09/27 10:44:52;;;;;;;8.35;3.45;;;;;;;23.03;57.77;101087.00;4906511;29;20339;-77
2021/09/27 10:47:32;;;;;;;13.98;3.88;;;;;;;22.67;59.42;101092.81;4925516;29;20016;-77
2021/09/27 10:50:22;;;;;;;8.60;2.85;;;;;;;21.95;59.67;101093.66;4937694;29;20134;-77
2021/09/27 10:52:50;;;;;;;15.68;4.75;;;;;;;21.25;64.79;101086.06;4922239;29;20035;-77
2021/09/27 10:55:39;;;;;;;17.00;4.70;;;;;;;21.62;63.67;101092.88;4946980;29;20047;-77
2021/09/27 10:58:05;;;;;;;;;;;;;;;21.36;64.48;101079.03;4930555;29;20119;-77
2021/09/27 11:00:37;;;;;;;12.30;3.28;;;;;;;20.96;62.75;101080.44;4928286;29;19922;-77
2021/09/27 11:03:15;;;;;;;7.38;3.25;;;;;;;22.15;61.75;101078.63;4942402;29;20039;-77
2021/09/27 11:05:54;;;;;;;7.23;3.27;;;;;;;21.93;63.26;101069.78;4935259;29;20042;-77
2021/09/27 11:08:40;;;;;;;7.90;2.92;;;;;;;21.95;61.88;101075.00;4944355;28;20023;-76
2021/09/27 11:11:25;;;;;;;16.95;4.50;;;;;;;22.01;62.79;101072.66;4928472;29;20024;-77
2021/09/27 11:13:50;;;;;;;10.20;3.50;;;;;;;21.62;61.65;101067.06;4941568;29;20176;-77
2021/09/27 11:16:23;;;;;;;6.97;2.97;;;;;;;21.71;61.96;101075.25;4917381;29;20048;-77
2021/09/27 11:19:04;;;;;;;27.73;5.65;;;;;;;22.08;63.93;101070.28;4923319;29;20040;-77
2021/09/27 11:21:35;;;;;;;23.08;4.20;;;;;;;21.81;61.67;101069.03;4935716;29;20042;-76
2021/09/27 11:24:09;;;;;;;23.15;4.68;;;;;;;22.04;62.77;101072.38;4949758;28;20447;-76
2021/09/27 11:26:37;;;;;;;9.23;3.38;;;;;;;21.95;61.53;101069.66;4955869;28;20036;-76
2021/09/27 11:29:36;;;;;;;9.40;3.35;;;;;;;21.53;62.71;101067.81;4953212;28;20059;-76
2021/09/27 11:32:28;;;;;;;5.32;3.10;;;;;;;20.89;66.13;101065.94;4936172;29;20039;-76
2021/09/27 11:35:03;;;;;;;28.70;5.03;;;;;;;21.30;65.05;101072.34;4952618;28;20035;-80
2021/09/27 11:37:31;;;;;;;13.00;3.85;;;;;;;21.03;67.70;101080.81;4940174;29;20051;-80
2021/09/27 11:40:06;;;;;;;;;;;;;;;20.86;66.14;101075.00;4931357;29;20039;-83
2021/09/27 11:42:55;;;;;;;33.78;5.07;;;;;;;21.34;64.68;101075.59;4958187;28;19923;-83
2021/09/27 11:45:55;;;;;;;11.75;4.57;;;;;;;21.09;65.47;101082.97;4950561;29;20024;-82
2021/09/27 11:48:20;;;;;;;7.32;3.35;;;;;;;21.15;65.03;101073.63;4951000;28;20134;-82
2021/09/27 11:50:50;;;;;;;16.63;4.47;;;;;;;21.23;66.52;101085.34;4963358;28;20354;-82
2021/09/27 11:53:40;;;;;;;12.07;3.80;;;;;;;21.06;65.61;101084.03;4968162;28;20327;-82
2021/09/27 11:56:25;;;;;;;8.43;3.38;;;;;;;20.78;66.73;101084.59;4955633;28;20058;-82